Terminal Aerodrome Forecast
Issued by NWS

Home | Current Version | Previous Version | Text Only | Print | Product List | Glossary On
Versions: 1 2 3 4 5 6 7 8 9 10 11 12 13 14
000
FTUS45 KPSR 250500
TAFIWA
TAF
KIWA 250520Z 2506/2606 11005KT P6SM SKC
     FM251500 15007KT P6SM SCT100
     FM251800 17008KT P6SM SCT080 BKN100
     FM252100 27007KT P6SM BKN080 BKN100
     FM260400 14005KT P6SM FEW080 SCT120
      AMD LTD TO CLD VIS AND WIND TIL 251300=

USA.gov is the U.S. government's official web portal to all federal, state and local government web resources and services.